createdAt,value
2022-11-05T00:00:37.938Z,14.88
2022-11-05T00:03:28.999Z,15.20
2022-11-05T00:06:14.885Z,15.85
2022-11-05T00:09:00.800Z,15.32
2022-11-05T00:11:46.497Z,13.90
2022-11-05T00:19:26.644Z,13.45
2022-11-05T00:22:12.564Z,12.00
2022-11-05T00:24:58.180Z,10.95
2022-11-05T00:27:25.562Z,14.80
2022-11-05T00:29:52.583Z,13.07
2022-11-05T00:32:19.963Z,15.32
2022-11-05T00:34:48.056Z,12.20
2022-11-05T00:37:15.298Z,12.52
2022-11-05T00:39:42.262Z,15.88
2022-11-05T00:42:28.318Z,17.70
2022-11-05T00:45:01.271Z,13.82
2022-11-05T00:47:47.827Z,16.75
2022-11-05T00:50:14.947Z,17.10
2022-11-05T00:52:57.815Z,15.10
2022-11-05T00:55:26.856Z,13.52
2022-11-05T00:57:54.881Z,14.05
2022-11-05T01:00:23.861Z,16.27
2022-11-05T01:02:51.329Z,15.43
2022-11-05T01:05:18.927Z,16.67
2022-11-05T01:07:46.270Z,14.00
2022-11-05T01:10:13.321Z,16.50
2022-11-05T01:12:40.726Z,15.60
2022-11-05T01:15:08.293Z,15.55
2022-11-05T01:17:35.571Z,14.98
2022-11-05T01:20:02.650Z,12.93
2022-11-05T01:22:29.995Z,15.05
2022-11-05T01:24:57.066Z,19.98
2022-11-05T01:27:24.669Z,15.40
2022-11-05T01:29:51.878Z,15.82
2022-11-05T01:32:19.145Z,15.27
2022-11-05T01:34:46.311Z,15.48
2022-11-05T01:37:13.773Z,16.65
2022-11-05T01:39:40.779Z,14.63
2022-11-05T01:42:18.920Z,15.98
2022-11-05T01:45:13.948Z,14.30
2022-11-05T01:47:59.895Z,15.07
2022-11-05T01:50:48.536Z,14.40
2022-11-05T01:53:19.832Z,17.88
2022-11-05T01:56:05.390Z,13.23
2022-11-05T01:58:38.447Z,16.35
2022-11-05T02:01:05.532Z,16.67
2022-11-05T02:03:32.918Z,20.25
2022-11-05T02:06:02.761Z,15.88
2022-11-05T02:08:55.830Z,14.88
2022-11-05T02:11:23.206Z,18.00
2022-11-05T02:13:51.325Z,17.83
2022-11-05T02:16:26.968Z,14.32
2022-11-05T02:19:32.696Z,18.73
2022-11-05T02:22:43.390Z,18.98
2022-11-05T02:25:30.884Z,15.90
2022-11-05T02:28:42.830Z,17.42
2022-11-05T02:31:22.654Z,15.82
2022-11-05T02:33:56.742Z,15.10
2022-11-05T02:36:43.727Z,15.60
2022-11-05T02:39:18.424Z,16.27
2022-11-05T02:44:33.860Z,17.65
2022-11-05T02:47:42.634Z,17.55
2022-11-05T02:50:57.680Z,16.00
2022-11-05T02:53:51.534Z,16.10
2022-11-05T02:56:23.806Z,12.95
2022-11-05T02:58:51.163Z,17.85
2022-11-05T03:01:18.253Z,16.25
2022-11-05T03:03:55.746Z,17.55
2022-11-05T03:06:45.480Z,20.20
2022-11-05T03:09:35.737Z,21.52
2022-11-05T03:12:38.669Z,27.42
2022-11-05T03:15:27.355Z,21.38
2022-11-05T03:18:18.542Z,41.53
2022-11-05T03:20:48.749Z,38.63
2022-11-05T03:23:29.417Z,22.27
2022-11-05T03:26:10.201Z,32.58
2022-11-05T03:28:40.704Z,33.78
2022-11-05T03:31:08.504Z,31.05
2022-11-05T03:33:38.640Z,27.25
2022-11-05T03:36:16.499Z,25.52
2022-11-05T03:38:47.216Z,25.25
2022-11-05T03:41:16.220Z,28.88
2022-11-05T03:43:48.895Z,26.00
2022-11-05T03:46:24.577Z,22.70
2022-11-05T03:48:55.404Z,26.30
2022-11-05T03:51:35.809Z,29.27
2022-11-05T03:54:05.163Z,17.70
2022-11-05T03:56:43.539Z,29.08
2022-11-05T03:59:12.050Z,27.95
2022-11-05T04:01:39.862Z,29.75
2022-11-05T04:04:07.124Z,26.67
2022-11-05T04:06:53.362Z,25.30
2022-11-05T04:09:38.997Z,28.30
2022-11-05T04:12:25.232Z,30.05
2022-11-05T04:14:52.176Z,29.10
2022-11-05T04:17:19.437Z,26.33
2022-11-05T04:20:05.117Z,29.70
2022-11-05T04:22:53.254Z,31.00
2022-11-05T04:25:21.525Z,31.80
2022-11-05T04:27:48.906Z,25.67
2022-11-05T04:30:20.515Z,30.33
2022-11-05T04:33:15.448Z,29.60
2022-11-05T04:35:45.241Z,31.60
2022-11-05T04:38:15.123Z,24.40
2022-11-05T04:40:43.027Z,30.98
2022-11-05T04:43:20.054Z,32.78
2022-11-05T04:45:47.257Z,28.30
2022-11-05T04:48:14.506Z,28.25
2022-11-05T04:50:41.555Z,28.92
2022-11-05T04:53:09.007Z,30.90
2022-11-05T04:55:36.163Z,34.55
2022-11-05T04:58:03.469Z,34.08
2022-11-05T05:00:30.585Z,32.47
2022-11-05T05:02:57.830Z,29.60
2022-11-05T05:05:24.966Z,40.95
2022-11-05T05:07:52.256Z,44.13
2022-11-05T05:10:19.342Z,42.47
2022-11-05T05:12:46.854Z,50.72
2022-11-05T05:15:13.829Z,45.58
2022-11-05T05:17:41.093Z,62.00
2022-11-05T05:20:27.006Z,68.82
2022-11-05T05:22:55.219Z,58.05
2022-11-05T05:25:22.459Z,38.58
2022-11-05T05:27:49.877Z,37.17
2022-11-05T05:30:17.176Z,30.00
2022-11-05T05:32:44.910Z,34.17
2022-11-05T05:35:12.179Z,30.05
2022-11-05T05:37:39.479Z,38.88
2022-11-05T05:40:07.117Z,34.67
2022-11-05T05:42:38.776Z,35.83
2022-11-05T05:45:09.193Z,30.00
2022-11-05T05:47:36.540Z,28.55
2022-11-05T05:50:03.855Z,34.72
2022-11-05T05:52:31.808Z,31.95
2022-11-05T05:54:58.767Z,31.80
2022-11-05T05:57:26.001Z,36.75
2022-11-05T05:59:53.059Z,35.10
2022-11-05T06:02:20.428Z,40.17
2022-11-05T06:04:47.526Z,45.92
2022-11-05T06:07:14.807Z,37.88
2022-11-05T06:09:41.807Z,35.30
2022-11-05T06:12:09.219Z,40.80
2022-11-05T06:14:36.165Z,42.60
2022-11-05T06:17:03.428Z,37.95
2022-11-05T06:19:30.390Z,45.92
2022-11-05T06:21:57.651Z,37.97
2022-11-05T06:24:24.665Z,35.78
2022-11-05T06:26:51.954Z,34.25
2022-11-05T06:29:19.005Z,35.30
2022-11-05T06:31:46.524Z,39.50
2022-11-05T06:34:13.597Z,35.15
2022-11-05T06:36:40.847Z,35.17
2022-11-05T06:39:12.555Z,35.97
2022-11-05T06:42:04.069Z,38.00
2022-11-05T06:44:26.906Z,37.60
2022-11-05T06:46:54.148Z,30.33
2022-11-05T06:49:24.641Z,38.03
2022-11-05T06:51:52.270Z,34.72
2022-11-05T06:54:19.321Z,33.63
2022-11-05T06:56:47.118Z,34.35
2022-11-05T06:59:14.169Z,35.40
2022-11-05T07:01:41.561Z,40.00
2022-11-05T07:04:08.691Z,36.00
2022-11-05T07:06:37.218Z,38.17
2022-11-05T07:09:04.706Z,37.97
2022-11-05T07:11:32.066Z,40.20
2022-11-05T07:13:59.064Z,41.13
2022-11-05T07:16:26.335Z,36.95
2022-11-05T07:18:55.839Z,35.50
2022-11-05T07:21:23.471Z,40.97
2022-11-05T07:23:50.630Z,38.33
2022-11-05T07:26:17.993Z,37.25
2022-11-05T07:28:44.965Z,43.58
2022-11-05T07:31:12.307Z,46.17
2022-11-05T07:33:39.295Z,41.03
2022-11-05T07:36:09.968Z,44.75
2022-11-05T07:38:36.985Z,41.30
2022-11-05T07:41:05.021Z,52.70
2022-11-05T07:43:32.076Z,49.15
2022-11-05T07:45:59.508Z,46.90
2022-11-05T07:48:28.765Z,42.45
2022-11-05T07:50:56.002Z,43.38
2022-11-05T07:53:22.985Z,43.85
2022-11-05T07:55:52.488Z,54.70
2022-11-05T07:58:19.665Z,46.70
2022-11-05T08:00:47.977Z,47.25
2022-11-05T08:03:17.236Z,55.20
2022-11-05T08:05:47.158Z,46.78
2022-11-05T08:08:16.677Z,46.70
2022-11-05T08:10:44.093Z,51.13
2022-11-05T08:13:12.939Z,50.78
2022-11-05T08:15:41.029Z,59.63
2022-11-05T08:18:16.261Z,50.15
2022-11-05T08:20:45.424Z,48.67
2022-11-05T08:23:12.994Z,46.63
2022-11-05T08:25:40.718Z,45.92
2022-11-05T08:28:11.087Z,47.83
2022-11-05T08:30:38.787Z,54.03
2022-11-05T08:33:08.676Z,53.38
2022-11-05T08:35:37.587Z,51.60
2022-11-05T08:38:06.905Z,40.08
2022-11-05T08:40:35.466Z,41.22
2022-11-05T08:43:04.140Z,46.47
2022-11-05T08:45:31.822Z,42.63
2022-11-05T08:48:03.902Z,43.70
2022-11-05T08:50:31.851Z,47.38
2022-11-05T08:52:59.190Z,46.47
2022-11-05T08:55:26.961Z,45.15
2022-11-05T08:58:10.728Z,47.63
2022-11-05T09:00:39.694Z,42.00
2022-11-05T09:03:08.667Z,44.08
2022-11-05T09:05:40.120Z,50.55
2022-11-05T09:08:09.308Z,44.25
2022-11-05T09:10:37.493Z,38.47
2022-11-05T09:13:04.873Z,39.25
2022-11-05T09:15:33.414Z,47.95
2022-11-05T09:18:00.555Z,43.10
2022-11-05T09:20:28.720Z,44.95
2022-11-05T09:22:55.832Z,43.30
2022-11-05T09:25:23.603Z,35.45
2022-11-05T09:27:50.759Z,59.28
2022-11-05T09:30:18.186Z,71.07
2022-11-05T09:32:45.249Z,79.90
2022-11-05T09:35:12.748Z,49.08
2022-11-05T09:37:39.846Z,31.98
2022-11-05T09:40:08.302Z,29.92
2022-11-05T09:42:39.882Z,30.92
2022-11-05T09:45:20.368Z,35.05
2022-11-05T09:47:56.885Z,31.63
2022-11-05T09:50:40.539Z,30.70
2022-11-05T09:53:10.294Z,29.45
2022-11-05T09:55:42.098Z,34.65
2022-11-05T09:58:34.382Z,24.83
2022-11-05T10:01:04.721Z,26.58
2022-11-05T10:03:34.316Z,25.00
2022-11-05T10:06:08.633Z,22.25
2022-11-05T10:08:45.196Z,25.80
2022-11-05T10:11:24.984Z,29.27
2022-11-05T10:14:08.157Z,24.20
2022-11-05T10:16:43.448Z,26.02
2022-11-05T10:22:05.636Z,37.08
2022-11-05T10:24:30.469Z,24.00
2022-11-05T10:26:58.326Z,23.92
2022-11-05T10:29:29.662Z,33.05
2022-11-05T10:31:59.387Z,27.98
2022-11-05T10:34:30.893Z,28.67
2022-11-05T10:36:58.318Z,26.08
2022-11-05T10:39:27.703Z,25.80
2022-11-05T10:42:30.870Z,28.35
2022-11-05T10:45:09.636Z,30.17
2022-11-05T10:47:55.396Z,28.38
2022-11-05T10:50:29.652Z,25.27
2022-11-05T10:53:18.314Z,29.17
2022-11-05T10:55:48.198Z,25.50
2022-11-05T10:58:15.440Z,25.60
2022-11-05T11:01:06.237Z,24.05
2022-11-05T11:03:46.371Z,29.17
2022-11-05T11:06:18.086Z,28.08
2022-11-05T11:08:47.739Z,23.60
2022-11-05T11:11:32.090Z,21.95
2022-11-05T11:14:06.273Z,20.95
2022-11-05T11:16:39.339Z,82.00
2022-11-05T11:19:26.319Z,46.47
2022-11-05T11:22:16.400Z,36.85
2022-11-05T11:24:47.765Z,29.38
2022-11-05T11:27:22.618Z,29.92
2022-11-05T11:29:56.526Z,41.33
2022-11-05T11:32:28.208Z,27.90
2022-11-05T11:34:58.127Z,27.05
2022-11-05T11:37:35.569Z,31.30
2022-11-05T11:40:16.749Z,30.02
2022-11-05T11:43:00.385Z,35.38
2022-11-05T11:45:36.540Z,38.05
2022-11-05T11:48:10.315Z,38.90
2022-11-05T11:50:41.761Z,39.78
2022-11-05T11:53:20.947Z,38.40
2022-11-05T11:56:05.192Z,22.80
2022-11-05T11:58:48.804Z,28.70
2022-11-05T12:01:16.133Z,27.45
2022-11-05T12:03:54.349Z,29.02
2022-11-05T12:06:29.740Z,25.90
2022-11-05T12:09:17.714Z,25.75
2022-11-05T12:12:01.861Z,28.33
2022-11-05T12:14:36.085Z,65.03
2022-11-05T12:17:15.981Z,69.18
2022-11-05T12:20:03.149Z,51.38
2022-11-05T12:22:44.281Z,30.20
2022-11-05T12:25:26.943Z,24.48
2022-11-05T12:28:36.182Z,31.05
2022-11-05T12:31:10.437Z,78.00
2022-11-05T12:33:40.763Z,60.90
2022-11-05T12:36:28.625Z,29.55
2022-11-05T12:39:21.431Z,29.13
2022-11-05T12:42:07.315Z,32.22
2022-11-05T12:44:51.899Z,41.20
2022-11-05T12:47:30.338Z,72.47
2022-11-05T12:50:04.599Z,48.25
2022-11-05T12:52:37.776Z,25.30
2022-11-05T12:55:40.109Z,25.40
2022-11-05T12:58:20.521Z,26.92
2022-11-05T13:00:57.174Z,20.17
2022-11-05T13:03:43.859Z,21.95
2022-11-05T13:06:15.883Z,20.67
2022-11-05T13:09:06.796Z,20.52
2022-11-05T13:11:41.921Z,21.45
2022-11-05T13:14:14.608Z,18.83
2022-11-05T13:16:47.585Z,19.80
2022-11-05T13:19:18.014Z,24.33
2022-11-05T13:21:54.053Z,23.75
2022-11-05T13:24:25.497Z,20.08
2022-11-05T13:27:03.558Z,22.20
2022-11-05T13:29:43.590Z,38.00
2022-11-05T13:32:35.515Z,83.07
2022-11-05T13:35:05.896Z,47.55
2022-11-05T13:38:02.039Z,36.35
2022-11-05T13:43:25.519Z,77.80
2022-11-05T13:46:04.463Z,33.13
2022-11-05T13:48:51.609Z,22.65
2022-11-05T13:51:40.689Z,23.42
2022-11-05T13:54:22.955Z,27.10
2022-11-05T13:57:09.961Z,27.73
2022-11-05T13:59:37.211Z,13.85
2022-11-05T14:02:17.278Z,15.57
2022-11-05T14:04:54.405Z,12.18
2022-11-05T14:07:23.680Z,14.55
2022-11-05T14:10:01.424Z,16.77
2022-11-05T14:12:38.782Z,20.15
2022-11-05T14:15:17.503Z,19.95
2022-11-05T14:17:54.940Z,28.05
2022-11-05T14:20:31.308Z,27.98
2022-11-05T14:23:23.205Z,19.25
2022-11-05T14:26:15.324Z,15.57
2022-11-05T14:28:45.467Z,23.48
2022-11-05T14:31:16.859Z,22.00
2022-11-05T14:34:12.420Z,18.73
2022-11-05T14:36:41.259Z,16.55
2022-11-05T14:39:19.565Z,18.20
2022-11-05T14:42:02.469Z,14.02
2022-11-05T14:44:34.392Z,22.50
2022-11-05T14:47:19.729Z,23.63
2022-11-05T14:49:53.902Z,20.75
2022-11-05T14:52:21.645Z,23.75
2022-11-05T14:54:53.392Z,21.20
2022-11-05T14:57:57.041Z,26.85
2022-11-05T15:00:29.945Z,58.88
2022-11-05T15:03:05.396Z,42.15
2022-11-05T15:05:47.795Z,31.42
2022-11-05T15:08:26.832Z,26.25
2022-11-05T15:10:58.132Z,29.10
2022-11-05T15:13:54.807Z,27.67
2022-11-05T15:16:33.642Z,25.35
2022-11-05T15:19:01.351Z,25.95
2022-11-05T15:21:31.929Z,26.50
2022-11-05T15:24:01.162Z,29.88
2022-11-05T15:26:43.750Z,39.60
2022-11-05T15:29:21.570Z,47.20
2022-11-05T15:31:50.295Z,49.60
2022-11-05T15:34:19.123Z,60.58
2022-11-05T15:37:00.167Z,37.10
2022-11-05T15:39:32.226Z,35.20
2022-11-05T15:42:02.780Z,50.75
2022-11-05T15:44:33.364Z,44.28
2022-11-05T15:47:22.973Z,54.50
2022-11-05T15:49:53.541Z,65.15
2022-11-05T15:52:23.365Z,57.55
2022-11-05T15:55:17.337Z,52.78
2022-11-05T15:57:53.422Z,51.45
2022-11-05T16:00:23.326Z,50.80
2022-11-05T16:02:59.335Z,37.70
2022-11-05T16:05:31.083Z,44.58
2022-11-05T16:07:59.710Z,37.22
2022-11-05T16:10:34.536Z,55.88
2022-11-05T16:13:38.040Z,59.40
2022-11-05T16:16:33.394Z,57.97
2022-11-05T16:19:00.890Z,49.53
2022-11-05T16:21:28.416Z,39.35
2022-11-05T16:23:58.710Z,40.55
2022-11-05T16:29:33.832Z,43.55
2022-11-05T16:32:05.499Z,38.28
2022-11-05T16:34:41.309Z,62.45
2022-11-05T16:37:13.369Z,54.75
2022-11-05T16:39:42.929Z,47.70
2022-11-05T16:42:22.417Z,40.35
2022-11-05T16:44:50.685Z,36.92
2022-11-05T16:47:19.286Z,36.83
2022-11-05T16:49:48.484Z,30.10
2022-11-05T16:52:16.414Z,27.67
2022-11-05T16:54:43.672Z,27.90
2022-11-05T16:57:26.775Z,31.80
2022-11-05T16:59:55.871Z,40.20
2022-11-05T17:02:23.553Z,38.63
2022-11-05T17:04:50.950Z,39.00
2022-11-05T17:07:21.350Z,45.85
2022-11-05T17:09:50.739Z,48.53
2022-11-05T17:12:18.067Z,74.97
2022-11-05T17:14:47.372Z,62.08
2022-11-05T17:17:14.830Z,69.80
2022-11-05T17:19:42.703Z,83.00
2022-11-05T17:22:10.421Z,79.38
2022-11-05T17:24:38.909Z,93.50
2022-11-05T17:27:06.345Z,74.10
2022-11-05T17:29:33.394Z,87.78
2022-11-05T17:32:00.735Z,81.30
2022-11-05T17:34:28.055Z,52.65
2022-11-05T17:36:55.472Z,52.90
2022-11-05T17:39:28.704Z,68.43
2022-11-05T17:41:58.587Z,77.63
2022-11-05T17:44:26.177Z,62.72
2022-11-05T17:46:53.523Z,56.65
2022-11-05T17:49:20.559Z,44.22
2022-11-05T17:51:48.089Z,50.70
2022-11-05T17:54:15.931Z,68.68
2022-11-05T17:56:44.804Z,41.47
2022-11-05T17:59:12.040Z,44.95
2022-11-05T18:01:43.380Z,31.10
2022-11-05T18:04:12.082Z,36.30
2022-11-05T18:06:40.927Z,26.63
2022-11-05T18:09:09.660Z,31.20
2022-11-05T18:11:37.993Z,39.13
2022-11-05T18:14:05.380Z,39.67
2022-11-05T18:16:33.323Z,37.67
2022-11-05T18:19:00.468Z,40.63
2022-11-05T18:21:27.940Z,37.75
2022-11-05T18:23:55.009Z,39.47
2022-11-05T18:26:22.461Z,34.25
2022-11-05T18:28:49.500Z,25.65
2022-11-05T18:31:21.581Z,28.20
2022-11-05T18:33:50.126Z,24.35
2022-11-05T18:36:23.417Z,23.95
2022-11-05T18:38:51.662Z,29.17
2022-11-05T18:41:22.056Z,46.67
2022-11-05T18:43:49.197Z,45.78
2022-11-05T18:46:43.133Z,23.88
2022-11-05T18:49:05.664Z,25.30
2022-11-05T18:51:33.287Z,20.13
2022-11-05T18:54:00.638Z,17.90
2022-11-05T18:56:28.036Z,18.10
2022-11-05T18:59:21.902Z,23.70
2022-11-05T19:01:43.095Z,22.85
2022-11-05T19:04:13.330Z,26.92
2022-11-05T19:06:41.044Z,31.85
2022-11-05T19:09:12.005Z,35.47
2022-11-05T19:11:40.049Z,30.55
2022-11-05T19:14:10.191Z,35.78
2022-11-05T19:16:37.724Z,43.63
2022-11-05T19:19:06.666Z,45.83
2022-11-05T19:21:36.649Z,46.17
2022-11-05T19:24:04.043Z,40.88
2022-11-05T19:26:31.599Z,38.83
2022-11-05T19:29:00.874Z,42.33
2022-11-05T19:31:28.687Z,38.20
2022-11-05T19:33:56.057Z,38.95
2022-11-05T19:36:24.786Z,46.28
2022-11-05T19:39:03.671Z,64.07
2022-11-05T19:41:31.317Z,61.25
2022-11-05T19:43:59.711Z,50.47
2022-11-05T19:46:28.192Z,44.80
2022-11-05T19:48:55.404Z,43.58
2022-11-05T19:51:25.215Z,45.67
2022-11-05T19:53:53.135Z,46.88
2022-11-05T19:56:23.248Z,43.90
2022-11-05T19:58:51.802Z,39.58
2022-11-05T20:01:21.504Z,39.53
2022-11-05T20:03:48.934Z,35.05
2022-11-05T20:06:23.275Z,29.52
2022-11-05T20:09:19.784Z,29.23
2022-11-05T20:11:39.341Z,45.83
2022-11-05T20:14:07.931Z,42.42
2022-11-05T20:16:39.179Z,39.03
2022-11-05T20:19:08.543Z,42.13
2022-11-05T20:21:36.088Z,36.20
2022-11-05T20:24:03.837Z,35.92
2022-11-05T20:26:31.838Z,30.20
2022-11-05T20:28:59.301Z,31.13
2022-11-05T20:31:29.336Z,29.40
2022-11-05T20:33:56.731Z,28.50
2022-11-05T20:36:26.110Z,26.98
2022-11-05T20:38:56.644Z,40.25
2022-11-05T20:41:25.154Z,44.72
2022-11-05T20:43:52.303Z,42.28
2022-11-05T20:46:21.481Z,63.17
2022-11-05T20:48:49.553Z,57.78
2022-11-05T20:51:22.136Z,51.10
2022-11-05T20:53:53.493Z,47.92
2022-11-05T20:56:25.821Z,34.70
2022-11-05T20:58:53.128Z,31.13
2022-11-05T21:01:20.995Z,39.42
2022-11-05T21:03:50.280Z,36.92
2022-11-05T21:06:19.774Z,35.28
2022-11-05T21:08:51.126Z,46.78
2022-11-05T21:11:19.515Z,53.85
2022-11-05T21:13:46.760Z,50.53
2022-11-05T21:16:18.437Z,45.05
2022-11-05T21:18:48.880Z,42.58
2022-11-05T21:21:19.377Z,33.15
2022-11-05T21:23:47.512Z,27.92
2022-11-05T21:26:16.831Z,28.63
2022-11-05T21:28:44.178Z,30.95
2022-11-05T21:31:11.821Z,32.75
2022-11-05T21:33:38.919Z,32.83
2022-11-05T21:36:12.909Z,37.58
2022-11-05T21:38:40.746Z,39.72
2022-11-05T21:41:10.305Z,41.08
2022-11-05T21:43:38.779Z,45.88
2022-11-05T21:46:08.409Z,62.33
2022-11-05T21:48:36.684Z,60.10
2022-11-05T21:51:22.865Z,52.60
2022-11-05T21:54:08.466Z,55.22
2022-11-05T21:56:56.050Z,51.63
2022-11-05T21:59:43.096Z,34.92
2022-11-05T22:02:12.592Z,32.83
2022-11-05T22:04:45.280Z,32.35
2022-11-05T22:07:16.772Z,35.05
2022-11-05T22:09:44.381Z,34.72
2022-11-05T22:12:15.752Z,34.90
2022-11-05T22:14:43.259Z,34.50
2022-11-05T22:17:11.048Z,37.10
2022-11-05T22:19:38.306Z,38.53
2022-11-05T22:22:07.037Z,36.38
2022-11-05T22:24:35.487Z,43.53
2022-11-05T22:27:09.048Z,38.97
2022-11-05T22:29:36.748Z,28.20
2022-11-05T22:32:05.465Z,28.77
2022-11-05T22:34:32.838Z,30.17
2022-11-05T22:37:00.316Z,28.33
2022-11-05T22:39:27.370Z,27.90
2022-11-05T22:41:58.668Z,29.73
2022-11-05T22:44:26.944Z,26.10
2022-11-05T22:46:54.669Z,23.75
2022-11-05T22:49:23.050Z,22.40
2022-11-05T22:51:50.555Z,21.15
2022-11-05T22:54:20.251Z,19.58
2022-11-05T22:56:50.348Z,23.90
2022-11-05T22:59:18.961Z,28.33
2022-11-05T23:01:46.883Z,34.20
2022-11-05T23:04:14.868Z,32.25
2022-11-05T23:07:01.242Z,32.42
2022-11-05T23:09:49.688Z,28.83
2022-11-05T23:12:33.009Z,24.60
2022-11-05T23:15:01.714Z,23.23
2022-11-05T23:17:47.821Z,32.53
2022-11-05T23:20:41.953Z,38.75
2022-11-05T23:23:39.029Z,40.33
2022-11-05T23:26:26.022Z,40.90
2022-11-05T23:28:53.564Z,26.15
2022-11-05T23:31:39.020Z,28.15
2022-11-05T23:34:06.350Z,28.58
2022-11-05T23:36:52.172Z,26.85
2022-11-05T23:39:19.429Z,22.08
2022-11-05T23:42:04.853Z,27.15
2022-11-05T23:44:51.059Z,25.15
2022-11-05T23:47:36.679Z,23.48
2022-11-05T23:50:04.147Z,19.42
2022-11-05T23:52:31.156Z,20.20
2022-11-05T23:54:58.421Z,18.08
2022-11-05T23:57:25.560Z,20.30
2022-11-05T23:59:52.792Z,26.42
